createdAt,value
2018-05-21T00:00:16.599Z,17.93
2018-05-21T00:02:44.725Z,17.95
2018-05-21T00:05:12.846Z,17.91
2018-05-21T00:07:40.993Z,17.86
2018-05-21T00:10:09.107Z,17.82
2018-05-21T00:12:37.206Z,17.81
2018-05-21T00:15:05.369Z,17.74
2018-05-21T00:17:33.485Z,17.64
2018-05-21T00:20:01.598Z,17.58
2018-05-21T00:22:29.715Z,17.53
2018-05-21T00:24:57.857Z,17.50
2018-05-21T00:27:25.975Z,17.55
2018-05-21T00:29:54.101Z,17.57
2018-05-21T00:32:22.222Z,17.53
2018-05-21T00:34:50.333Z,17.55
2018-05-21T00:37:18.479Z,17.55
2018-05-21T00:39:46.660Z,17.62
2018-05-21T00:42:14.787Z,17.46
2018-05-21T00:44:42.940Z,17.39
2018-05-21T00:47:11.076Z,17.50
2018-05-21T00:49:39.193Z,17.48
2018-05-21T00:52:07.329Z,17.50
2018-05-21T00:54:35.441Z,17.49
2018-05-21T00:57:03.573Z,17.37
2018-05-21T00:59:31.687Z,17.26
2018-05-21T01:01:59.823Z,17.35
2018-05-21T01:04:27.948Z,17.46
2018-05-21T01:06:56.091Z,17.48
2018-05-21T01:09:24.188Z,17.36
2018-05-21T01:11:53.133Z,17.38
2018-05-21T01:14:21.274Z,17.48
2018-05-21T01:16:49.385Z,17.45
2018-05-21T01:19:17.501Z,17.30
2018-05-21T01:21:45.779Z,17.31
2018-05-21T01:24:13.883Z,17.33
2018-05-21T01:26:42.016Z,17.28
2018-05-21T01:29:10.293Z,17.20
2018-05-21T01:31:38.422Z,17.22
2018-05-21T01:34:06.544Z,17.22
2018-05-21T01:36:34.685Z,17.14
2018-05-21T01:39:02.802Z,17.24
2018-05-21T01:41:30.924Z,17.15
2018-05-21T01:43:59.076Z,17.19
2018-05-21T01:46:27.166Z,17.06
2018-05-21T01:48:55.270Z,17.11
2018-05-21T01:51:23.410Z,17.03
2018-05-21T01:53:51.527Z,17.07
2018-05-21T01:56:19.637Z,17.10
2018-05-21T01:58:47.971Z,17.05
2018-05-21T02:01:16.071Z,16.95
2018-05-21T02:03:44.170Z,17.02
2018-05-21T02:06:12.301Z,16.93
2018-05-21T02:08:40.523Z,17.00
2018-05-21T02:11:08.550Z,17.04
2018-05-21T02:13:36.681Z,16.96
2018-05-21T02:16:04.818Z,16.96
2018-05-21T02:18:32.960Z,16.92
2018-05-21T02:21:01.427Z,16.87
2018-05-21T02:23:29.514Z,16.90
2018-05-21T02:25:57.637Z,16.84
2018-05-21T02:28:25.765Z,16.83
2018-05-21T02:30:53.902Z,16.68
2018-05-21T02:33:22.028Z,16.67
2018-05-21T02:35:50.165Z,16.66
2018-05-21T02:38:18.260Z,16.54
2018-05-21T02:40:46.369Z,16.36
2018-05-21T02:43:14.491Z,16.56
2018-05-21T02:45:42.601Z,16.54
2018-05-21T02:48:10.716Z,16.53
2018-05-21T02:50:39.668Z,16.51
2018-05-21T02:53:07.805Z,16.43
2018-05-21T02:55:35.949Z,16.51
2018-05-21T02:58:04.063Z,16.51
2018-05-21T03:00:32.189Z,16.51
2018-05-21T03:03:00.303Z,16.29
2018-05-21T03:05:28.427Z,16.12
2018-05-21T03:07:56.531Z,16.23
2018-05-21T03:10:24.636Z,16.33
2018-05-21T03:12:52.787Z,16.37
2018-05-21T03:15:20.929Z,16.38
2018-05-21T03:17:49.060Z,16.44
2018-05-21T03:20:17.197Z,16.36
2018-05-21T03:22:45.310Z,16.22
2018-05-21T03:25:13.456Z,16.19
2018-05-21T03:27:41.576Z,16.17
2018-05-21T03:30:09.716Z,16.09
2018-05-21T03:32:37.825Z,15.97
2018-05-21T03:35:05.938Z,16.06
2018-05-21T03:37:34.056Z,15.99
2018-05-21T03:40:02.417Z,16.03
2018-05-21T03:42:30.534Z,16.17
2018-05-21T03:44:58.673Z,15.96
2018-05-21T03:47:26.775Z,15.94
2018-05-21T03:49:54.899Z,16.02
2018-05-21T03:52:23.017Z,16.27
2018-05-21T03:54:51.130Z,16.24
2018-05-21T03:57:19.494Z,16.13
2018-05-21T03:59:59.595Z,16.08
2018-05-21T04:02:39.688Z,16.13
2018-05-21T04:05:07.801Z,16.09
2018-05-21T04:07:35.932Z,15.97
2018-05-21T04:10:04.977Z,16.12
2018-05-21T04:12:33.150Z,16.09
2018-05-21T04:15:01.288Z,16.18
2018-05-21T04:17:29.480Z,16.25
2018-05-21T04:19:57.583Z,16.25
2018-05-21T04:22:25.705Z,16.26
2018-05-21T04:24:53.851Z,16.31
2018-05-21T04:27:21.952Z,16.35
2018-05-21T04:29:50.091Z,16.36
2018-05-21T04:32:18.239Z,16.28
2018-05-21T04:34:46.349Z,16.24
2018-05-21T04:37:14.464Z,16.24
2018-05-21T04:39:42.717Z,16.28
2018-05-21T04:42:10.836Z,16.33
2018-05-21T04:44:38.962Z,16.13
2018-05-21T04:47:07.102Z,16.14
2018-05-21T04:49:35.208Z,16.24
2018-05-21T04:52:03.328Z,16.39
2018-05-21T04:54:31.461Z,16.47
2018-05-21T04:56:59.592Z,16.29
2018-05-21T04:59:27.691Z,16.35
2018-05-21T05:01:55.817Z,16.42
2018-05-21T05:04:23.938Z,16.45
2018-05-21T05:06:52.053Z,16.33
2018-05-21T05:09:20.202Z,16.31
2018-05-21T05:11:48.332Z,16.38
2018-05-21T05:14:16.452Z,16.47
2018-05-21T05:16:44.582Z,16.55
2018-05-21T05:19:12.696Z,16.31
2018-05-21T05:21:40.806Z,16.43
2018-05-21T05:24:08.934Z,16.51
2018-05-21T05:26:37.092Z,16.58
2018-05-21T05:29:05.201Z,16.68
2018-05-21T05:31:33.339Z,16.62
2018-05-21T05:34:01.461Z,16.68
2018-05-21T05:36:29.568Z,16.78
2018-05-21T05:38:57.681Z,16.90
2018-05-21T05:41:25.805Z,16.94
2018-05-21T05:43:53.915Z,16.96
2018-05-21T05:46:22.047Z,17.03
2018-05-21T05:48:50.206Z,17.11
2018-05-21T05:51:18.286Z,17.17
2018-05-21T05:53:47.007Z,17.24
2018-05-21T05:56:15.133Z,17.22
2018-05-21T05:58:43.307Z,17.20
2018-05-21T06:01:11.389Z,17.06
2018-05-21T06:03:39.646Z,17.30
2018-05-21T06:06:07.643Z,17.29
2018-05-21T06:08:35.772Z,17.23
2018-05-21T06:11:03.913Z,17.31
2018-05-21T06:13:32.035Z,17.40
2018-05-21T06:16:00.165Z,17.43
2018-05-21T06:18:28.284Z,17.51
2018-05-21T06:20:56.405Z,17.60
2018-05-21T06:23:24.541Z,17.69
2018-05-21T06:25:52.720Z,17.74
2018-05-21T06:28:20.774Z,17.80
2018-05-21T06:30:48.892Z,17.89
2018-05-21T06:33:16.994Z,17.99
2018-05-21T06:35:45.113Z,18.11
2018-05-21T06:38:13.425Z,18.24
2018-05-21T06:40:41.566Z,18.33
2018-05-21T06:43:09.696Z,18.32
2018-05-21T06:45:37.840Z,18.42
2018-05-21T06:48:05.938Z,18.52
2018-05-21T06:50:34.056Z,18.58
2018-05-21T06:53:02.167Z,18.61
2018-05-21T06:55:30.285Z,18.75
2018-05-21T06:57:58.387Z,18.87
2018-05-21T07:00:26.535Z,18.96
2018-05-21T07:02:54.653Z,19.06
2018-05-21T07:05:22.750Z,19.15
2018-05-21T07:07:50.918Z,19.19
2018-05-21T07:10:19.002Z,19.28
2018-05-21T07:12:47.125Z,19.35
2018-05-21T07:15:15.256Z,19.41
2018-05-21T07:17:43.366Z,19.39
2018-05-21T07:20:11.478Z,19.54
2018-05-21T07:22:39.609Z,19.65
2018-05-21T07:25:07.734Z,19.63
2018-05-21T07:27:35.873Z,19.68
2018-05-21T07:30:04.041Z,19.84
2018-05-21T07:32:32.187Z,19.90
2018-05-21T07:35:00.306Z,20.06
2018-05-21T07:37:28.400Z,20.07
2018-05-21T07:39:56.518Z,20.09
2018-05-21T07:42:24.641Z,20.17
2018-05-21T07:44:52.818Z,20.22
2018-05-21T07:47:20.883Z,20.22
2018-05-21T07:49:49.009Z,20.29
2018-05-21T07:52:17.141Z,20.23
2018-05-21T07:54:45.265Z,20.21
2018-05-21T07:57:13.385Z,20.29
2018-05-21T07:59:41.538Z,20.34
2018-05-21T08:02:09.648Z,20.25
2018-05-21T08:04:37.768Z,20.30
2018-05-21T08:07:05.927Z,20.33
2018-05-21T08:09:34.040Z,20.36
2018-05-21T08:12:02.459Z,20.35
2018-05-21T08:14:30.680Z,20.40
2018-05-21T08:16:58.742Z,20.52
2018-05-21T08:19:26.853Z,20.58
2018-05-21T08:21:54.993Z,20.65
2018-05-21T08:24:23.379Z,20.66
2018-05-21T08:26:51.241Z,20.87
2018-05-21T08:29:19.537Z,20.93
2018-05-21T08:31:47.652Z,20.92
2018-05-21T08:34:15.807Z,20.91
2018-05-21T08:36:43.923Z,20.95
2018-05-21T08:39:12.049Z,21.09
2018-05-21T08:41:40.183Z,21.15
2018-05-21T08:44:08.313Z,21.18
2018-05-21T08:46:36.430Z,21.05
2018-05-21T08:49:04.559Z,21.23
2018-05-21T08:51:32.670Z,21.41
2018-05-21T08:54:00.816Z,21.42
2018-05-21T08:56:29.008Z,21.37
2018-05-21T08:58:57.286Z,21.43
2018-05-21T09:01:25.404Z,21.35
2018-05-21T09:03:53.529Z,21.36
2018-05-21T09:06:21.681Z,21.48
2018-05-21T09:08:49.779Z,21.47
2018-05-21T09:11:17.901Z,21.51
2018-05-21T09:13:46.036Z,21.61
2018-05-21T09:16:14.236Z,21.78
2018-05-21T09:18:42.291Z,21.83
2018-05-21T09:21:10.426Z,21.76
2018-05-21T09:23:38.559Z,21.76
2018-05-21T09:26:06.737Z,21.84
2018-05-21T09:28:34.869Z,21.77
2018-05-21T09:31:02.967Z,21.84
2018-05-21T09:33:31.084Z,21.99
2018-05-21T09:35:59.214Z,22.16
2018-05-21T09:38:27.332Z,22.21
2018-05-21T09:40:55.456Z,22.08
2018-05-21T09:43:23.935Z,22.09
2018-05-21T09:45:52.052Z,22.32
2018-05-21T09:48:20.180Z,22.32
2018-05-21T09:50:48.305Z,22.39
2018-05-21T09:53:16.410Z,22.58
2018-05-21T09:55:44.547Z,22.44
2018-05-21T09:58:12.669Z,22.35
2018-05-21T10:00:40.789Z,22.31
2018-05-21T10:03:08.916Z,22.39
2018-05-21T10:05:37.062Z,22.50
2018-05-21T10:08:05.195Z,22.52
2018-05-21T10:10:33.282Z,22.67
2018-05-21T10:13:01.433Z,22.52
2018-05-21T10:15:30.002Z,22.45
2018-05-21T10:17:58.136Z,22.43
2018-05-21T10:20:26.273Z,22.47
2018-05-21T10:22:54.366Z,22.67
2018-05-21T10:25:22.638Z,22.89
2018-05-21T10:27:50.805Z,22.94
2018-05-21T10:30:18.933Z,22.82
2018-05-21T10:32:47.040Z,22.70
2018-05-21T10:35:15.178Z,22.73
2018-05-21T10:37:43.306Z,22.76
2018-05-21T10:40:11.483Z,22.86
2018-05-21T10:42:39.612Z,22.86
2018-05-21T10:45:07.725Z,22.85
2018-05-21T10:47:35.840Z,23.00
2018-05-21T10:50:03.982Z,23.14
2018-05-21T10:52:32.094Z,23.20
2018-05-21T10:55:00.236Z,23.22
2018-05-21T10:57:28.381Z,23.22
2018-05-21T10:59:56.471Z,23.29
2018-05-21T11:02:24.633Z,23.29
2018-05-21T11:04:52.953Z,23.35
2018-05-21T11:07:21.081Z,23.20
2018-05-21T11:09:49.184Z,23.30
2018-05-21T11:12:17.418Z,23.18
2018-05-21T11:14:45.438Z,23.15
2018-05-21T11:17:13.554Z,23.11
2018-05-21T11:19:41.703Z,23.14
2018-05-21T11:22:09.814Z,23.34
2018-05-21T11:24:37.966Z,23.46
2018-05-21T11:27:06.076Z,23.41
2018-05-21T11:29:34.216Z,23.43
2018-05-21T11:32:02.488Z,23.47
2018-05-21T11:34:30.525Z,23.37
2018-05-21T11:36:58.640Z,23.51
2018-05-21T11:39:26.762Z,23.58
2018-05-21T11:41:55.090Z,23.69
2018-05-21T11:44:23.220Z,23.75
2018-05-21T11:46:51.329Z,23.81
2018-05-21T11:49:19.471Z,24.13
2018-05-21T11:51:47.593Z,24.02
2018-05-21T11:54:15.733Z,24.11
2018-05-21T11:56:43.871Z,24.24
2018-05-21T11:59:11.967Z,24.27
2018-05-21T12:01:40.092Z,24.16
2018-05-21T12:04:08.221Z,24.39
2018-05-21T12:06:36.342Z,24.38
2018-05-21T12:09:04.455Z,24.56
2018-05-21T12:11:32.567Z,24.66
2018-05-21T12:14:00.712Z,24.67
2018-05-21T12:16:28.826Z,24.81
2018-05-21T12:18:56.953Z,24.85
2018-05-21T12:21:25.091Z,25.34
2018-05-21T12:23:53.224Z,25.10
2018-05-21T12:26:21.557Z,25.05
2018-05-21T12:28:49.685Z,25.37
2018-05-21T12:31:17.779Z,25.26
2018-05-21T12:33:45.902Z,25.13
2018-05-21T12:36:14.025Z,25.08
2018-05-21T12:38:42.139Z,25.32
2018-05-21T12:41:10.259Z,25.35
2018-05-21T12:43:38.451Z,25.13
2018-05-21T12:46:06.529Z,25.02
2018-05-21T12:48:34.657Z,24.93
2018-05-21T12:51:02.773Z,25.04
2018-05-21T12:53:30.878Z,25.15
2018-05-21T12:55:59.012Z,25.27
2018-05-21T12:58:27.161Z,25.41
2018-05-21T13:00:56.105Z,25.37
2018-05-21T13:03:24.241Z,25.58
2018-05-21T13:05:52.348Z,25.61
2018-05-21T13:08:20.473Z,25.83
2018-05-21T13:10:48.583Z,25.95
2018-05-21T13:13:16.709Z,26.09
2018-05-21T13:15:44.839Z,25.96
2018-05-21T13:18:12.974Z,25.52
2018-05-21T13:20:41.071Z,25.24
2018-05-21T13:23:09.197Z,25.31
2018-05-21T13:25:37.317Z,25.51
2018-05-21T13:28:05.455Z,25.66
2018-05-21T13:30:33.587Z,25.90
2018-05-21T13:33:05.155Z,25.97
2018-05-21T13:35:33.277Z,25.87
2018-05-21T13:38:01.382Z,25.80
2018-05-21T13:40:29.552Z,25.82
2018-05-21T13:42:57.751Z,25.71
2018-05-21T13:45:25.854Z,25.62
2018-05-21T13:47:53.966Z,25.66
2018-05-21T13:50:22.093Z,25.74
2018-05-21T13:52:50.235Z,25.74
2018-05-21T13:55:18.376Z,25.98
2018-05-21T13:57:46.489Z,26.05
2018-05-21T14:00:14.612Z,25.98
2018-05-21T14:02:42.754Z,26.00
2018-05-21T14:05:10.882Z,26.07
2018-05-21T14:07:38.966Z,25.98
2018-05-21T14:10:10.585Z,25.95
2018-05-21T14:12:38.736Z,25.88
2018-05-21T14:15:06.790Z,25.84
2018-05-21T14:17:34.919Z,25.92
2018-05-21T14:20:03.102Z,25.95
2018-05-21T14:22:31.204Z,25.96
2018-05-21T14:24:59.341Z,25.96
2018-05-21T14:27:31.646Z,25.91
2018-05-21T14:29:59.795Z,25.83
2018-05-21T14:32:27.931Z,25.79
2018-05-21T14:34:56.054Z,26.00
2018-05-21T14:37:24.184Z,25.97
2018-05-21T14:39:52.302Z,25.88
2018-05-21T14:42:20.414Z,25.77
2018-05-21T14:44:48.546Z,25.77
2018-05-21T14:47:16.736Z,25.75
2018-05-21T14:49:45.327Z,25.75
2018-05-21T14:52:13.463Z,25.78
2018-05-21T14:54:41.741Z,25.80
2018-05-21T14:57:09.889Z,25.67
2018-05-21T14:59:38.947Z,25.66
2018-05-21T15:02:07.111Z,25.63
2018-05-21T15:04:35.824Z,25.61
2018-05-21T15:07:03.931Z,25.61
2018-05-21T15:09:32.121Z,25.87
2018-05-21T15:12:00.221Z,26.02
2018-05-21T15:14:28.411Z,25.91
2018-05-21T15:16:56.549Z,26.00
2018-05-21T15:19:24.732Z,26.02
2018-05-21T15:21:52.845Z,25.84
2018-05-21T15:24:21.000Z,25.70
2018-05-21T15:26:49.117Z,25.81
2018-05-21T15:29:17.320Z,25.95
2018-05-21T15:31:45.589Z,26.15
2018-05-21T15:34:17.165Z,25.99
2018-05-21T15:36:45.285Z,25.80
2018-05-21T15:39:13.399Z,25.67
2018-05-21T15:41:41.522Z,25.59
2018-05-21T15:44:09.655Z,25.69
2018-05-21T15:46:37.811Z,25.63
2018-05-21T15:49:05.930Z,25.65
2018-05-21T15:51:34.078Z,25.64
2018-05-21T15:54:02.182Z,25.43
2018-05-21T15:56:30.305Z,25.32
2018-05-21T15:58:58.452Z,25.47
2018-05-21T16:01:26.600Z,25.44
2018-05-21T16:03:54.711Z,25.42
2018-05-21T16:06:22.852Z,25.25
2018-05-21T16:08:50.981Z,25.13
2018-05-21T16:11:19.099Z,25.04
2018-05-21T16:13:47.320Z,25.09
2018-05-21T16:16:15.452Z,25.08
2018-05-21T16:18:43.583Z,25.08
2018-05-21T16:21:11.793Z,25.00
2018-05-21T16:23:39.911Z,24.92
2018-05-21T16:26:08.012Z,24.83
2018-05-21T16:28:37.019Z,24.75
2018-05-21T16:31:05.175Z,24.60
2018-05-21T16:33:33.439Z,24.44
2018-05-21T16:36:01.584Z,24.47
2018-05-21T16:38:29.709Z,24.48
2018-05-21T16:40:57.825Z,24.41
2018-05-21T16:43:29.799Z,24.34
2018-05-21T16:45:57.932Z,24.31
2018-05-21T16:48:26.038Z,24.30
2018-05-21T16:50:54.138Z,24.31
2018-05-21T16:53:22.297Z,24.28
2018-05-21T16:55:50.416Z,24.25
2018-05-21T16:58:18.515Z,24.15
2018-05-21T17:00:46.669Z,24.08
2018-05-21T17:03:14.778Z,24.08
2018-05-21T17:05:42.886Z,24.14
2018-05-21T17:08:11.022Z,24.15
2018-05-21T17:10:39.115Z,24.20
2018-05-21T17:13:07.245Z,24.20
2018-05-21T17:15:35.350Z,24.22
2018-05-21T17:18:03.455Z,24.13
2018-05-21T17:20:31.590Z,24.08
2018-05-21T17:22:59.738Z,24.08
2018-05-21T17:25:27.866Z,24.16
2018-05-21T17:27:55.985Z,24.21
2018-05-21T17:30:24.116Z,24.11
2018-05-21T17:32:52.286Z,24.10
2018-05-21T17:35:20.445Z,24.04
2018-05-21T17:37:48.576Z,23.97
2018-05-21T17:40:16.696Z,23.97
2018-05-21T17:42:44.832Z,23.93
2018-05-21T17:45:12.973Z,23.90
2018-05-21T17:47:41.093Z,23.89
2018-05-21T17:50:09.210Z,23.90
2018-05-21T17:52:37.355Z,23.85
2018-05-21T17:55:05.506Z,23.84
2018-05-21T17:57:33.618Z,23.80
2018-05-21T18:00:01.815Z,23.70
2018-05-21T18:02:29.915Z,23.68
2018-05-21T18:04:58.137Z,23.69
2018-05-21T18:07:26.285Z,23.66
2018-05-21T18:09:54.427Z,23.65
2018-05-21T18:12:22.608Z,23.65
2018-05-21T18:14:50.728Z,23.57
2018-05-21T18:17:18.846Z,23.54
2018-05-21T18:19:46.962Z,23.53
2018-05-21T18:22:18.125Z,23.47
2018-05-21T18:24:46.237Z,23.49
2018-05-21T18:27:14.361Z,23.44
2018-05-21T18:29:42.498Z,23.44
2018-05-21T18:32:10.668Z,23.39
2018-05-21T18:34:38.755Z,23.31
2018-05-21T18:37:06.912Z,23.30
2018-05-21T18:39:35.022Z,23.30
2018-05-21T18:42:03.207Z,23.29
2018-05-21T18:44:31.269Z,23.36
2018-05-21T18:46:59.404Z,23.33
2018-05-21T18:49:27.514Z,23.25
2018-05-21T18:51:55.877Z,23.17
2018-05-21T18:54:23.974Z,23.14
2018-05-21T18:56:52.095Z,23.08
2018-05-21T18:59:20.357Z,23.06
2018-05-21T19:01:48.525Z,23.03
2018-05-21T19:04:16.712Z,22.96
2018-05-21T19:06:45.013Z,22.96
2018-05-21T19:09:13.159Z,22.94
2018-05-21T19:11:41.287Z,23.00
2018-05-21T19:14:09.423Z,22.97
2018-05-21T19:16:37.542Z,22.91
2018-05-21T19:19:05.664Z,22.90
2018-05-21T19:21:33.827Z,22.84
2018-05-21T19:24:01.983Z,22.78
2018-05-21T19:26:30.094Z,22.75
2018-05-21T19:28:58.225Z,22.74
2018-05-21T19:31:26.331Z,22.72
2018-05-21T19:33:55.364Z,22.66
2018-05-21T19:36:24.369Z,22.63
2018-05-21T19:38:52.486Z,22.61
2018-05-21T19:41:20.608Z,22.60
2018-05-21T19:43:48.754Z,22.53
2018-05-21T19:46:16.858Z,22.52
2018-05-21T19:48:44.998Z,22.50
2018-05-21T19:51:13.141Z,22.47
2018-05-21T19:53:41.307Z,22.44
2018-05-21T19:56:09.402Z,22.46
2018-05-21T19:58:37.552Z,22.43
2018-05-21T20:01:05.688Z,22.39
2018-05-21T20:03:33.810Z,22.37
2018-05-21T20:06:02.040Z,22.33
2018-05-21T20:08:30.160Z,22.32
2018-05-21T20:10:58.325Z,22.31
2018-05-21T20:13:26.593Z,22.27
2018-05-21T20:15:54.690Z,22.25
2018-05-21T20:18:33.889Z,22.21
2018-05-21T20:21:02.026Z,22.19
2018-05-21T20:23:30.194Z,22.16
2018-05-21T20:25:58.451Z,22.14
2018-05-21T20:28:29.965Z,22.10
2018-05-21T20:30:58.124Z,22.05
2018-05-21T20:33:26.641Z,22.02
2018-05-21T20:35:54.779Z,22.02
2018-05-21T20:38:22.892Z,22.01
2018-05-21T20:40:51.117Z,22.03
2018-05-21T20:43:19.253Z,21.97
2018-05-21T20:45:47.491Z,21.94
2018-05-21T20:48:15.667Z,21.94
2018-05-21T20:50:43.774Z,21.94
2018-05-21T20:53:11.875Z,21.97
2018-05-21T20:55:40.024Z,21.96
2018-05-21T20:58:08.141Z,21.91
2018-05-21T21:00:36.316Z,21.90
2018-05-21T21:03:04.703Z,21.89
2018-05-21T21:05:32.831Z,21.87
2018-05-21T21:08:00.957Z,21.86
2018-05-21T21:10:29.323Z,21.83
2018-05-21T21:12:57.429Z,21.86
2018-05-21T21:15:25.530Z,21.86
2018-05-21T21:17:53.648Z,21.79
2018-05-21T21:20:21.766Z,21.76
2018-05-21T21:22:50.022Z,21.73
2018-05-21T21:25:18.141Z,21.77
2018-05-21T21:27:49.404Z,21.78
2018-05-21T21:30:17.520Z,21.79
2018-05-21T21:32:45.652Z,21.77
2018-05-21T21:35:13.776Z,21.70
2018-05-21T21:37:41.891Z,21.61
2018-05-21T21:40:10.037Z,21.60
2018-05-21T21:42:38.141Z,21.57
2018-05-21T21:45:06.273Z,21.52
2018-05-21T21:47:34.410Z,21.51
2018-05-21T21:50:02.539Z,21.45
2018-05-21T21:52:30.658Z,21.31
2018-05-21T21:54:58.780Z,21.17
2018-05-21T21:57:26.916Z,21.14
2018-05-21T21:59:55.047Z,21.10
2018-05-21T22:02:23.172Z,21.05
2018-05-21T22:04:51.288Z,21.02
2018-05-21T22:07:19.390Z,20.84
2018-05-21T22:09:47.617Z,20.79
2018-05-21T22:12:15.727Z,20.60
2018-05-21T22:14:43.846Z,20.37
2018-05-21T22:17:11.952Z,20.29
2018-05-21T22:19:40.092Z,20.44
2018-05-21T22:22:08.213Z,20.47
2018-05-21T22:24:36.356Z,20.54
2018-05-21T22:27:04.479Z,20.47
2018-05-21T22:29:32.612Z,20.50
2018-05-21T22:32:01.003Z,20.57
2018-05-21T22:34:29.128Z,20.52
2018-05-21T22:36:57.219Z,20.47
2018-05-21T22:39:25.373Z,20.46
2018-05-21T22:41:53.463Z,20.42
2018-05-21T22:44:21.577Z,20.32
2018-05-21T22:46:49.700Z,20.32
2018-05-21T22:49:17.813Z,20.31
2018-05-21T22:51:46.021Z,20.30
2018-05-21T22:54:19.946Z,20.24
2018-05-21T22:56:48.053Z,20.29
2018-05-21T22:59:16.199Z,20.30
2018-05-21T23:01:44.399Z,20.32
2018-05-21T23:04:12.532Z,20.29
2018-05-21T23:06:40.700Z,20.25
2018-05-21T23:09:08.847Z,20.18
2018-05-21T23:11:36.993Z,20.18
2018-05-21T23:14:05.114Z,20.26
2018-05-21T23:16:33.413Z,20.30
2018-05-21T23:19:01.536Z,20.24
2018-05-21T23:21:29.653Z,20.23
2018-05-21T23:23:57.971Z,20.28
2018-05-21T23:26:26.107Z,20.31
2018-05-21T23:28:54.227Z,20.22
2018-05-21T23:31:22.368Z,20.17
2018-05-21T23:33:50.467Z,20.17
2018-05-21T23:36:18.578Z,20.14
2018-05-21T23:38:46.707Z,20.13
2018-05-21T23:41:14.830Z,20.10
2018-05-21T23:43:42.947Z,20.13
2018-05-21T23:46:11.100Z,20.12
2018-05-21T23:48:39.202Z,20.10
2018-05-21T23:51:07.402Z,20.12
2018-05-21T23:53:35.468Z,20.06
2018-05-21T23:56:03.608Z,19.99
2018-05-21T23:58:31.736Z,19.91
